createdAt,value
2024-03-01T00:00:09.173Z,0.00
2024-03-01T00:01:09.372Z,0.00
2024-03-01T00:02:09.525Z,0.00
2024-03-01T00:03:09.697Z,0.00
2024-03-01T00:04:09.906Z,0.00
2024-03-01T00:05:10.058Z,0.00
2024-03-01T00:06:10.273Z,0.00
2024-03-01T00:07:10.468Z,0.00
2024-03-01T00:08:10.606Z,0.00
2024-03-01T00:09:10.797Z,0.00
2024-03-01T00:10:11.056Z,0.00
2024-03-01T00:11:11.292Z,0.00
2024-03-01T00:12:11.364Z,0.00
2024-03-01T00:13:11.530Z,0.00
2024-03-01T00:14:11.719Z,0.00
2024-03-01T00:15:11.873Z,0.00
2024-03-01T00:16:12.121Z,0.00
2024-03-01T00:17:12.231Z,0.00
2024-03-01T00:18:12.425Z,0.00
2024-03-01T00:19:12.639Z,0.00
2024-03-01T00:20:12.767Z,0.00
2024-03-01T00:21:12.970Z,0.00
2024-03-01T00:22:13.164Z,0.00
2024-03-01T00:23:13.329Z,0.00
2024-03-01T00:24:13.513Z,0.00
2024-03-01T00:25:13.780Z,0.00
2024-03-01T00:26:13.882Z,0.00
2024-03-01T00:27:14.062Z,0.00
2024-03-01T00:28:14.255Z,0.00
2024-03-01T00:29:14.443Z,0.00
2024-03-01T00:30:14.658Z,0.00
2024-03-01T00:31:14.826Z,0.00
2024-03-01T00:32:14.972Z,0.00
2024-03-01T00:33:15.274Z,0.00
2024-03-01T00:34:15.353Z,0.00
2024-03-01T00:35:15.526Z,0.00
2024-03-01T00:36:15.722Z,0.00
2024-03-01T00:37:15.913Z,0.00
2024-03-01T00:38:16.067Z,0.00
2024-03-01T00:39:16.237Z,0.00
2024-03-01T00:40:16.526Z,0.00
2024-03-01T00:41:16.601Z,0.00
2024-03-01T00:42:16.786Z,0.00
2024-03-01T00:43:16.990Z,0.00
2024-03-01T00:44:17.156Z,0.00
2024-03-01T00:45:17.380Z,0.00
2024-03-01T00:46:17.591Z,0.00
2024-03-01T00:47:18.704Z,0.00
2024-03-01T00:48:17.886Z,0.00
2024-03-01T00:49:18.149Z,0.00
2024-03-01T00:50:18.248Z,0.00
2024-03-01T00:51:18.472Z,0.00
2024-03-01T00:52:18.657Z,0.00
2024-03-01T00:53:18.790Z,0.00
2024-03-01T00:54:18.968Z,0.00
2024-03-01T00:55:19.237Z,0.00
2024-03-01T00:56:19.338Z,0.00
2024-03-01T00:57:19.512Z,0.00
2024-03-01T00:58:19.708Z,0.00
2024-03-01T00:59:19.946Z,0.00
2024-03-01T01:00:20.048Z,0.00
2024-03-01T01:01:20.291Z,0.00
2024-03-01T01:02:20.446Z,0.00
2024-03-01T01:03:21.607Z,0.00
2024-03-01T01:04:20.811Z,0.00
2024-03-01T01:05:20.997Z,0.00
2024-03-01T01:06:21.178Z,0.00
2024-03-01T01:07:21.397Z,0.00
2024-03-01T01:08:22.507Z,0.00
2024-03-01T01:09:21.737Z,0.00
2024-03-01T01:10:21.995Z,0.00
2024-03-01T01:11:22.141Z,0.00
2024-03-01T01:12:22.330Z,0.00
2024-03-01T01:13:22.547Z,0.00
2024-03-01T01:14:22.693Z,0.00
2024-03-01T01:15:22.876Z,0.00
2024-03-01T01:16:23.081Z,0.00
2024-03-01T01:17:23.268Z,0.00
2024-03-01T01:18:23.439Z,0.00
2024-03-01T01:19:23.673Z,0.00
2024-03-01T01:20:23.772Z,0.00
2024-03-01T01:21:23.978Z,0.00
2024-03-01T01:22:24.414Z,0.00
2024-03-01T01:23:24.332Z,0.00
2024-03-01T01:24:24.501Z,0.00
2024-03-01T01:25:24.703Z,0.00
2024-03-01T01:26:24.902Z,0.00
2024-03-01T01:27:25.042Z,0.00
2024-03-01T01:28:25.359Z,0.00
2024-03-01T01:29:25.399Z,0.00
2024-03-01T01:30:25.601Z,0.00
2024-03-01T01:31:25.880Z,0.00
2024-03-01T01:32:25.960Z,0.00
2024-03-01T01:33:26.135Z,0.00
2024-03-01T01:34:26.345Z,0.00
2024-03-01T01:35:26.496Z,0.00
2024-03-01T01:36:26.685Z,0.00
2024-03-01T01:37:27.017Z,0.00
2024-03-01T01:38:27.027Z,0.00
2024-03-01T01:39:27.238Z,0.00
2024-03-01T01:40:27.438Z,0.00
2024-03-01T01:41:27.638Z,0.00
2024-03-01T01:42:27.804Z,0.00
2024-03-01T01:43:28.051Z,0.00
2024-03-01T01:44:28.149Z,0.00
2024-03-01T01:45:28.347Z,0.00
2024-03-01T01:46:28.613Z,0.00
2024-03-01T01:47:28.734Z,0.00
2024-03-01T01:48:28.897Z,0.00
2024-03-01T01:49:29.199Z,0.00
2024-03-01T01:50:29.267Z,0.00
2024-03-01T01:51:29.412Z,0.00
2024-03-01T01:52:29.698Z,0.00
2024-03-01T01:53:31.961Z,0.00
2024-03-01T01:54:30.957Z,0.00
2024-03-01T01:55:30.194Z,0.00
2024-03-01T01:56:30.330Z,0.00
2024-03-01T01:57:30.500Z,0.00
2024-03-01T01:58:30.809Z,0.00
2024-03-01T01:59:30.881Z,0.00
2024-03-01T02:00:31.082Z,0.00
2024-03-01T02:01:31.353Z,0.00
2024-03-01T02:02:31.460Z,0.00
2024-03-01T02:03:31.653Z,0.00
2024-03-01T02:04:31.927Z,0.00
2024-03-01T02:05:32.146Z,0.00
2024-03-01T02:06:32.218Z,0.00
2024-03-01T02:07:32.484Z,0.00
2024-03-01T02:08:32.595Z,0.00
2024-03-01T02:09:32.814Z,0.00
2024-03-01T02:10:33.053Z,0.00
2024-03-01T02:11:33.186Z,0.00
2024-03-01T02:12:33.325Z,0.00
2024-03-01T02:13:33.602Z,0.00
2024-03-01T02:14:33.690Z,0.00
2024-03-01T02:15:33.905Z,0.00
2024-03-01T02:16:34.110Z,0.00
2024-03-01T02:17:34.246Z,0.00
2024-03-01T02:18:41.421Z,0.00
2024-03-01T02:19:34.697Z,0.00
2024-03-01T02:20:34.763Z,0.00
2024-03-01T02:21:34.952Z,0.00
2024-03-01T02:22:35.186Z,0.00
2024-03-01T02:23:35.330Z,0.00
2024-03-01T02:24:35.518Z,0.00
2024-03-01T02:25:35.853Z,0.00
2024-03-01T02:26:35.897Z,0.00
2024-03-01T02:27:36.062Z,0.00
2024-03-01T02:28:36.317Z,0.00
2024-03-01T02:29:36.453Z,0.00
2024-03-01T02:30:36.638Z,0.00
2024-03-01T02:31:36.849Z,0.00
2024-03-01T02:32:37.033Z,0.00
2024-03-01T02:33:37.178Z,0.00
2024-03-01T02:34:37.436Z,0.00
2024-03-01T02:35:37.525Z,0.00
2024-03-01T02:36:37.714Z,0.00
2024-03-01T02:37:37.944Z,0.00
2024-03-01T02:38:38.058Z,0.00
2024-03-01T02:39:38.246Z,0.00
2024-03-01T02:40:38.467Z,0.00
2024-03-01T02:41:38.644Z,0.00
2024-03-01T02:42:38.799Z,0.00
2024-03-01T02:43:39.036Z,0.00
2024-03-01T02:44:39.146Z,0.00
2024-03-01T02:45:39.308Z,0.00
2024-03-01T02:46:39.521Z,0.00
2024-03-01T02:47:39.704Z,0.00
2024-03-01T02:48:39.855Z,0.00
2024-03-01T02:49:40.106Z,0.00
2024-03-01T02:50:40.231Z,0.00
2024-03-01T02:51:40.410Z,0.00
2024-03-01T02:52:40.584Z,0.00
2024-03-01T02:53:40.733Z,0.00
2024-03-01T02:54:40.906Z,0.00
2024-03-01T02:55:41.193Z,0.00
2024-03-01T02:56:41.319Z,0.00
2024-03-01T02:57:41.484Z,0.00
2024-03-01T02:58:41.763Z,0.00
2024-03-01T02:59:42.811Z,0.00
2024-03-01T03:00:42.100Z,0.00
2024-03-01T03:01:42.260Z,0.00
2024-03-01T03:02:42.390Z,0.00
2024-03-01T03:03:42.566Z,0.00
2024-03-01T03:04:42.764Z,0.00
2024-03-01T03:05:42.975Z,0.00
2024-03-01T03:06:44.727Z,0.00
2024-03-01T03:07:43.362Z,0.00
2024-03-01T03:08:43.488Z,0.00
2024-03-01T03:09:43.731Z,0.00
2024-03-01T03:10:43.933Z,0.00
2024-03-01T03:11:44.024Z,0.00
2024-03-01T03:12:44.194Z,0.00
2024-03-01T03:13:44.373Z,0.00
2024-03-01T03:14:44.553Z,0.00
2024-03-01T03:15:44.760Z,0.00
2024-03-01T03:16:44.932Z,0.00
2024-03-01T03:17:45.120Z,0.00
2024-03-01T03:18:45.288Z,0.00
2024-03-01T03:19:45.487Z,0.00
2024-03-01T03:20:45.685Z,0.00
2024-03-01T03:21:45.859Z,0.00
2024-03-01T03:22:46.338Z,0.00
2024-03-01T03:23:46.217Z,0.00
2024-03-01T03:24:46.406Z,0.00
2024-03-01T03:25:46.612Z,0.00
2024-03-01T03:26:46.755Z,0.00
2024-03-01T03:27:46.951Z,0.00
2024-03-01T03:28:47.115Z,0.00
2024-03-01T03:29:47.285Z,0.00
2024-03-01T03:30:47.476Z,0.00
2024-03-01T03:31:47.686Z,0.00
2024-03-01T03:32:47.934Z,0.00
2024-03-01T03:33:48.043Z,0.00
2024-03-01T03:34:48.224Z,0.00
2024-03-01T03:35:48.406Z,0.00
2024-03-01T03:36:48.625Z,0.00
2024-03-01T03:37:48.777Z,0.00
2024-03-01T03:38:48.985Z,0.00
2024-03-01T03:39:49.172Z,0.00
2024-03-01T03:40:49.320Z,0.00
2024-03-01T03:41:49.530Z,0.00
2024-03-01T03:42:49.693Z,0.00
2024-03-01T03:43:49.868Z,0.00
2024-03-01T03:44:50.063Z,0.00
2024-03-01T03:45:50.294Z,0.00
2024-03-01T03:46:50.436Z,0.00
2024-03-01T03:47:50.633Z,0.00
2024-03-01T03:48:50.836Z,0.00
2024-03-01T03:49:50.977Z,0.00
2024-03-01T03:50:51.195Z,0.00
2024-03-01T03:51:51.366Z,0.00
2024-03-01T03:52:51.522Z,0.00
2024-03-01T03:53:51.707Z,0.00
2024-03-01T03:54:51.913Z,0.00
2024-03-01T03:55:52.085Z,0.00
2024-03-01T03:56:52.252Z,0.00
2024-03-01T03:57:52.472Z,0.00
2024-03-01T03:58:52.604Z,0.00
2024-03-01T03:59:52.785Z,0.00
2024-03-01T04:00:53.087Z,0.00
2024-03-01T04:01:53.265Z,0.00
2024-03-01T04:02:53.382Z,0.00
2024-03-01T04:03:53.579Z,0.00
2024-03-01T04:04:53.704Z,0.00
2024-03-01T04:05:53.876Z,0.00
2024-03-01T04:06:54.108Z,0.00
2024-03-01T04:07:54.286Z,0.00
2024-03-01T04:08:54.434Z,0.00
2024-03-01T04:09:54.679Z,0.00
2024-03-01T04:10:54.815Z,0.00
2024-03-01T04:11:55.068Z,0.00
2024-03-01T04:12:55.251Z,0.00
2024-03-01T04:13:55.343Z,0.00
2024-03-01T04:14:55.522Z,0.00
2024-03-01T04:15:55.735Z,0.00
2024-03-01T04:16:55.910Z,0.00
2024-03-01T04:17:56.126Z,0.00
2024-03-01T04:18:56.303Z,0.00
2024-03-01T04:19:56.461Z,0.00
2024-03-01T04:20:56.626Z,0.00
2024-03-01T04:21:56.848Z,0.00
2024-03-01T04:22:56.975Z,0.00
2024-03-01T04:23:57.160Z,0.00
2024-03-01T04:24:57.370Z,0.00
2024-03-01T04:25:57.536Z,0.00
2024-03-01T04:26:57.762Z,0.00
2024-03-01T04:27:57.941Z,0.00
2024-03-01T04:28:58.109Z,0.00
2024-03-01T04:29:58.295Z,0.00
2024-03-01T04:30:58.567Z,0.00
2024-03-01T04:31:58.661Z,0.00
2024-03-01T04:32:58.944Z,0.00
2024-03-01T04:33:59.058Z,0.00
2024-03-01T04:34:59.219Z,0.00
2024-03-01T04:35:59.411Z,0.00
2024-03-01T04:36:59.938Z,0.00
2024-03-01T04:37:59.763Z,0.00
2024-03-01T04:38:59.971Z,0.00
2024-03-01T04:40:00.216Z,0.00
2024-03-01T04:41:00.342Z,0.00
2024-03-01T04:42:00.544Z,0.00
2024-03-01T04:43:00.806Z,0.00
2024-03-01T04:44:00.875Z,0.00
2024-03-01T04:45:01.093Z,0.00
2024-03-01T04:46:01.306Z,0.00
2024-03-01T04:47:01.462Z,0.00
2024-03-01T04:48:01.639Z,0.00
2024-03-01T04:49:01.870Z,0.00
2024-03-01T04:50:01.998Z,0.00
2024-03-01T04:51:02.186Z,0.00
2024-03-01T04:52:02.478Z,0.00
2024-03-01T04:53:02.555Z,0.00
2024-03-01T04:54:02.721Z,0.00
2024-03-01T04:55:02.957Z,0.00
2024-03-01T04:56:03.092Z,0.00
2024-03-01T04:57:03.298Z,0.00
2024-03-01T04:58:03.510Z,0.00
2024-03-01T04:59:03.644Z,0.00
2024-03-01T05:00:03.817Z,0.00
2024-03-01T05:01:04.226Z,0.00
2024-03-01T05:02:04.330Z,0.00
2024-03-01T05:03:04.396Z,0.00
2024-03-01T05:04:04.595Z,0.00
2024-03-01T05:05:04.758Z,0.00
2024-03-01T05:06:04.943Z,0.00
2024-03-01T05:07:05.185Z,0.00
2024-03-01T05:08:05.295Z,0.00
2024-03-01T05:09:05.487Z,0.00
2024-03-01T05:10:05.722Z,0.00
2024-03-01T05:11:05.973Z,0.00
2024-03-01T05:12:06.085Z,0.00
2024-03-01T05:13:06.224Z,0.00
2024-03-01T05:14:06.397Z,0.00
2024-03-01T05:15:06.562Z,0.00
2024-03-01T05:16:06.783Z,0.00
2024-03-01T05:17:06.932Z,0.00
2024-03-01T05:18:07.682Z,0.00
2024-03-01T05:19:07.331Z,0.00
2024-03-01T05:20:07.506Z,0.00
2024-03-01T05:21:07.644Z,0.00
2024-03-01T05:22:07.837Z,0.00
2024-03-01T05:23:08.018Z,0.00
2024-03-01T05:24:08.173Z,0.00
2024-03-01T05:25:08.356Z,0.00
2024-03-01T05:26:08.554Z,0.00
2024-03-01T05:27:08.710Z,0.00
2024-03-01T05:28:08.889Z,0.00
2024-03-01T05:29:09.069Z,0.00
2024-03-01T05:30:09.265Z,0.00
2024-03-01T05:31:18.995Z,0.00
2024-03-01T05:32:10.708Z,0.00
2024-03-01T05:33:09.893Z,0.00
2024-03-01T05:34:10.030Z,0.00
2024-03-01T05:35:10.169Z,0.00
2024-03-01T05:36:10.354Z,0.00
2024-03-01T05:37:10.606Z,0.00
2024-03-01T05:38:10.731Z,0.00
2024-03-01T05:39:10.914Z,0.00
2024-03-01T05:40:11.184Z,0.00
2024-03-01T05:41:11.284Z,0.00
2024-03-01T05:42:11.462Z,0.00
2024-03-01T05:43:11.699Z,0.00
2024-03-01T05:44:11.816Z,0.00
2024-03-01T05:45:12.023Z,0.00
2024-03-01T05:46:12.220Z,0.00
2024-03-01T05:47:12.347Z,0.00
2024-03-01T05:48:12.578Z,0.00
2024-03-01T05:49:12.742Z,0.00
2024-03-01T05:50:12.911Z,0.00
2024-03-01T05:51:13.287Z,0.00
2024-03-01T05:52:13.319Z,0.00
2024-03-01T05:53:13.465Z,0.00
2024-03-01T05:54:13.671Z,0.00
2024-03-01T05:55:14.147Z,0.00
2024-03-01T05:56:13.977Z,0.00
2024-03-01T05:57:14.169Z,0.00
2024-03-01T05:58:14.432Z,0.00
2024-03-01T05:59:14.524Z,0.00
2024-03-01T06:00:14.701Z,0.00
2024-03-01T06:01:14.997Z,0.00
2024-03-01T06:02:15.171Z,0.00
2024-03-01T06:03:15.258Z,0.00
2024-03-01T06:04:15.449Z,0.00
2024-03-01T06:05:15.652Z,0.00
2024-03-01T06:06:15.864Z,0.00
2024-03-01T06:07:16.050Z,0.00
2024-03-01T06:08:16.174Z,0.00
2024-03-01T06:09:16.348Z,0.00
2024-03-01T06:10:16.612Z,0.00
2024-03-01T06:11:16.732Z,0.00
2024-03-01T06:12:16.925Z,0.00
2024-03-01T06:13:17.165Z,0.00
2024-03-01T06:14:17.283Z,0.00
2024-03-01T06:15:17.520Z,0.00
2024-03-01T06:16:17.748Z,0.00
2024-03-01T06:17:17.855Z,0.00
2024-03-01T06:18:18.090Z,0.00
2024-03-01T06:19:18.239Z,0.00
2024-03-01T06:20:18.442Z,0.00
2024-03-01T06:21:18.604Z,0.00
2024-03-01T06:22:18.814Z,0.00
2024-03-01T06:23:19.024Z,0.00
2024-03-01T06:24:19.158Z,0.00
2024-03-01T06:25:19.334Z,0.00
2024-03-01T06:26:19.520Z,0.00
2024-03-01T06:27:19.712Z,0.00
2024-03-01T06:28:19.963Z,0.00
2024-03-01T06:29:20.099Z,0.00
2024-03-01T06:30:20.274Z,0.00
2024-03-01T06:31:20.567Z,0.00
2024-03-01T06:32:20.677Z,0.00
2024-03-01T06:33:20.890Z,0.00
2024-03-01T06:34:21.058Z,0.00
2024-03-01T06:35:22.155Z,0.00
2024-03-01T06:36:21.421Z,0.00
2024-03-01T06:37:21.675Z,0.00
2024-03-01T06:38:21.792Z,0.00
2024-03-01T06:39:21.961Z,0.00
2024-03-01T06:40:22.193Z,0.00
2024-03-01T06:41:22.333Z,0.00
2024-03-01T06:42:22.548Z,0.00
2024-03-01T06:43:22.730Z,0.00
2024-03-01T06:44:22.914Z,0.00
2024-03-01T06:45:23.113Z,0.00
2024-03-01T06:46:23.385Z,0.00
2024-03-01T06:47:23.598Z,0.00
2024-03-01T06:48:23.680Z,0.00
2024-03-01T06:49:23.846Z,0.00
2024-03-01T06:50:24.009Z,5.62
2024-03-01T06:51:24.225Z,5.62
2024-03-01T06:52:24.417Z,5.62
2024-03-01T06:53:25.097Z,5.62
2024-03-01T06:54:24.799Z,5.62
2024-03-01T06:55:25.044Z,5.62
2024-03-01T06:56:25.142Z,5.62
2024-03-01T06:57:25.348Z,5.62
2024-03-01T06:58:25.581Z,5.62
2024-03-01T06:59:25.708Z,5.62
2024-03-01T07:00:25.886Z,5.62
2024-03-01T07:01:26.127Z,5.62
2024-03-01T07:02:26.261Z,5.62
2024-03-01T07:03:26.463Z,5.62
2024-03-01T07:04:26.714Z,5.62
2024-03-01T07:05:26.827Z,5.62
2024-03-01T07:06:26.975Z,5.62
2024-03-01T07:07:27.233Z,5.62
2024-03-01T07:08:27.328Z,5.62
2024-03-01T07:09:27.522Z,5.62
2024-03-01T07:10:27.743Z,5.62
2024-03-01T07:11:28.016Z,5.62
2024-03-01T07:12:28.066Z,5.62
2024-03-01T07:13:28.309Z,5.62
2024-03-01T07:14:28.409Z,5.62
2024-03-01T07:15:28.610Z,5.62
2024-03-01T07:16:28.832Z,5.62
2024-03-01T07:17:29.059Z,5.62
2024-03-01T07:18:29.173Z,5.62
2024-03-01T07:19:29.376Z,5.62
2024-03-01T07:20:29.536Z,5.62
2024-03-01T07:21:29.714Z,5.62
2024-03-01T07:22:29.950Z,5.62
2024-03-01T07:23:30.108Z,5.62
2024-03-01T07:24:30.290Z,5.62
2024-03-01T07:25:30.536Z,11.25
2024-03-01T07:26:30.654Z,5.62
2024-03-01T07:27:30.834Z,5.62
2024-03-01T07:28:31.136Z,11.25
2024-03-01T07:29:31.230Z,11.25
2024-03-01T07:30:31.417Z,11.25
2024-03-01T07:31:31.691Z,5.62
2024-03-01T07:32:31.812Z,5.62
2024-03-01T07:33:32.236Z,5.62
2024-03-01T07:34:32.211Z,5.62
2024-03-01T07:35:32.383Z,11.25
2024-03-01T07:36:32.566Z,11.25
2024-03-01T07:37:32.926Z,5.62
2024-03-01T07:38:32.983Z,5.62
2024-03-01T07:39:33.171Z,11.25
2024-03-01T07:40:33.393Z,11.25
2024-03-01T07:41:33.517Z,11.25
2024-03-01T07:42:33.717Z,11.25
2024-03-01T07:43:34.030Z,11.25
2024-03-01T07:44:34.130Z,11.25
2024-03-01T07:45:34.306Z,11.25
2024-03-01T07:46:36.871Z,11.25
2024-03-01T07:47:34.687Z,11.25
2024-03-01T07:48:34.856Z,11.25
2024-03-01T07:49:35.092Z,11.25
2024-03-01T07:50:35.217Z,16.88
2024-03-01T07:51:35.383Z,16.88
2024-03-01T07:52:35.698Z,16.88
2024-03-01T07:53:35.752Z,16.88
2024-03-01T07:54:35.909Z,16.88
2024-03-01T07:55:38.293Z,16.88
2024-03-01T07:56:36.302Z,16.88
2024-03-01T07:57:36.535Z,16.88
2024-03-01T07:58:36.982Z,22.50
2024-03-01T07:59:36.971Z,22.50
2024-03-01T08:00:37.115Z,22.50
2024-03-01T08:01:37.390Z,22.50
2024-03-01T08:02:37.449Z,22.50
2024-03-01T08:03:37.626Z,22.50
2024-03-01T08:04:37.815Z,22.50
2024-03-01T08:05:37.989Z,22.50
2024-03-01T08:06:38.170Z,22.50
2024-03-01T08:07:38.439Z,22.50
2024-03-01T08:08:38.541Z,22.50
2024-03-01T08:09:38.729Z,22.50
2024-03-01T08:10:38.963Z,22.50
2024-03-01T08:11:39.152Z,22.50
2024-03-01T08:12:39.286Z,22.50
2024-03-01T08:13:39.593Z,28.12
2024-03-01T08:14:39.613Z,28.12
2024-03-01T08:15:39.919Z,28.12
2024-03-01T08:16:40.029Z,28.12
2024-03-01T08:17:40.304Z,33.75
2024-03-01T08:19:55.753Z,28.12
2024-03-01T08:20:55.962Z,28.12
2024-03-01T08:21:56.145Z,28.12
2024-03-01T08:22:56.321Z,33.75
2024-03-01T08:23:56.476Z,33.75
2024-03-01T08:24:56.706Z,28.12
2024-03-01T08:25:56.850Z,28.12
2024-03-01T08:26:57.027Z,33.75
2024-03-01T08:27:57.203Z,39.38
2024-03-01T08:28:57.364Z,39.38
2024-03-01T08:29:57.557Z,45.00
2024-03-01T08:30:57.840Z,56.25
2024-03-01T08:31:57.977Z,50.62
2024-03-01T08:32:58.174Z,50.62
2024-03-01T08:33:58.353Z,45.00
2024-03-01T08:34:58.512Z,39.38
2024-03-01T08:35:58.693Z,45.00
2024-03-01T08:36:58.935Z,39.38
2024-03-01T08:37:59.103Z,39.38
2024-03-01T08:38:59.254Z,39.38
2024-03-01T08:39:59.489Z,39.38
2024-03-01T08:40:59.636Z,33.75
2024-03-01T08:41:59.798Z,33.75
2024-03-01T08:43:00.052Z,33.75
2024-03-01T08:44:00.194Z,39.38
2024-03-01T08:45:00.766Z,45.00
2024-03-01T08:46:00.609Z,56.25
2024-03-01T08:47:00.762Z,50.62
2024-03-01T08:48:00.982Z,45.00
2024-03-01T08:49:01.219Z,45.00
2024-03-01T08:50:01.314Z,39.38
2024-03-01T08:51:01.514Z,45.00
2024-03-01T08:52:01.731Z,39.38
2024-03-01T08:53:01.907Z,39.38
2024-03-01T08:54:02.147Z,39.38
2024-03-01T08:55:02.273Z,45.00
2024-03-01T08:56:02.443Z,45.00
2024-03-01T08:57:02.636Z,45.00
2024-03-01T08:58:02.918Z,45.00
2024-03-01T08:59:03.015Z,45.00
2024-03-01T09:00:03.171Z,45.00
2024-03-01T09:01:03.404Z,45.00
2024-03-01T09:02:03.659Z,50.62
2024-03-01T09:03:03.770Z,50.62
2024-03-01T09:04:03.929Z,56.25
2024-03-01T09:05:04.102Z,56.25
2024-03-01T09:06:04.309Z,56.25
2024-03-01T09:07:04.512Z,56.25
2024-03-01T09:08:04.695Z,61.88
2024-03-01T09:09:04.832Z,67.50
2024-03-01T09:10:05.034Z,56.25
2024-03-01T09:11:05.226Z,56.25
2024-03-01T09:12:05.361Z,67.50
2024-03-01T09:13:05.634Z,73.12
2024-03-01T09:14:05.737Z,73.12
2024-03-01T09:15:05.912Z,73.12
2024-03-01T09:16:06.124Z,78.75
2024-03-01T09:17:06.269Z,106.88
2024-03-01T09:18:06.504Z,112.50
2024-03-01T09:19:06.666Z,118.12
2024-03-01T09:20:06.828Z,84.38
2024-03-01T09:21:06.999Z,106.88
2024-03-01T09:22:07.243Z,84.38
2024-03-01T09:23:07.383Z,78.75
2024-03-01T09:24:07.560Z,118.12
2024-03-01T09:25:07.784Z,157.50
2024-03-01T09:26:07.958Z,140.62
2024-03-01T09:27:08.145Z,151.88
2024-03-01T09:28:08.418Z,202.50
2024-03-01T09:29:08.505Z,230.62
2024-03-01T09:30:08.709Z,219.38
2024-03-01T09:31:08.908Z,213.75
2024-03-01T09:32:09.057Z,219.38
2024-03-01T09:33:09.289Z,174.38
2024-03-01T09:34:09.438Z,230.62
2024-03-01T09:35:09.625Z,230.62
2024-03-01T09:36:09.815Z,174.38
2024-03-01T09:37:10.094Z,168.75
2024-03-01T09:38:10.204Z,191.25
2024-03-01T09:39:10.352Z,196.88
2024-03-01T09:40:10.576Z,196.88
2024-03-01T09:41:11.733Z,213.75
2024-03-01T09:42:10.914Z,213.75
2024-03-01T09:43:11.170Z,202.50
2024-03-01T09:44:11.291Z,196.88
2024-03-01T09:45:11.483Z,219.38
2024-03-01T09:46:11.720Z,225.00
2024-03-01T09:47:11.873Z,225.00
2024-03-01T09:48:12.169Z,230.62
2024-03-01T09:49:12.349Z,236.25
2024-03-01T09:50:12.467Z,236.25
2024-03-01T09:51:12.625Z,236.25
2024-03-01T09:52:12.916Z,247.50
2024-03-01T09:53:12.999Z,253.12
2024-03-01T09:54:14.768Z,258.75
2024-03-01T09:55:13.480Z,258.75
2024-03-01T09:56:13.630Z,270.00
2024-03-01T09:57:13.781Z,275.62
2024-03-01T09:58:14.049Z,275.62
2024-03-01T09:59:14.152Z,315.00
2024-03-01T10:00:14.322Z,337.50
2024-03-01T10:01:14.625Z,275.62
2024-03-01T10:02:14.735Z,258.75
2024-03-01T10:03:14.869Z,258.75
2024-03-01T10:04:15.099Z,241.88
2024-03-01T10:05:15.240Z,213.75
2024-03-01T10:06:15.507Z,185.62
2024-03-01T10:07:15.671Z,202.50
2024-03-01T10:08:15.851Z,202.50
2024-03-01T10:09:16.013Z,168.75
2024-03-01T10:10:16.225Z,168.75
2024-03-01T10:11:16.457Z,180.00
2024-03-01T10:12:16.570Z,185.62
2024-03-01T10:13:16.786Z,180.00
2024-03-01T10:14:16.946Z,151.88
2024-03-01T10:15:17.176Z,140.62
2024-03-01T10:16:17.373Z,129.38
2024-03-01T10:17:17.516Z,118.12
2024-03-01T10:18:17.718Z,112.50
2024-03-01T10:19:17.962Z,112.50
2024-03-01T10:20:18.101Z,106.88
2024-03-01T10:21:18.297Z,106.88
2024-03-01T10:22:18.499Z,106.88
2024-03-01T10:23:18.674Z,106.88
2024-03-01T10:24:18.953Z,106.88
2024-03-01T10:25:19.141Z,101.25
2024-03-01T10:26:19.211Z,106.88
2024-03-01T10:27:19.408Z,112.50
2024-03-01T10:28:19.649Z,112.50
2024-03-01T10:29:19.788Z,123.75
2024-03-01T10:30:19.951Z,151.88
2024-03-01T10:31:20.212Z,185.62
2024-03-01T10:32:20.326Z,157.50
2024-03-01T10:33:20.556Z,151.88
2024-03-01T10:34:20.746Z,146.25
2024-03-01T10:35:20.894Z,129.38
2024-03-01T10:36:21.065Z,129.38
2024-03-01T10:37:21.291Z,118.12
2024-03-01T10:38:21.422Z,112.50
2024-03-01T10:39:21.639Z,106.88
2024-03-01T10:40:21.835Z,101.25
2024-03-01T10:41:27.420Z,101.25
2024-03-01T10:42:23.171Z,95.62
2024-03-01T10:43:22.432Z,95.62
2024-03-01T10:44:22.568Z,90.00
2024-03-01T10:45:22.750Z,90.00
2024-03-01T10:46:22.963Z,90.00
2024-03-01T10:47:23.114Z,90.00
2024-03-01T10:48:23.346Z,90.00
2024-03-01T10:49:23.596Z,90.00
2024-03-01T10:50:24.066Z,90.00
2024-03-01T10:51:23.819Z,90.00
2024-03-01T10:52:24.042Z,90.00
2024-03-01T10:53:24.186Z,90.00
2024-03-01T10:54:24.382Z,95.62
2024-03-01T10:55:24.786Z,101.25
2024-03-01T10:56:24.755Z,101.25
2024-03-01T10:57:24.947Z,101.25
2024-03-01T10:58:25.194Z,95.62
2024-03-01T10:59:25.331Z,101.25
2024-03-01T11:00:25.559Z,101.25
2024-03-01T11:01:26.091Z,101.25
2024-03-01T11:02:26.263Z,101.25
2024-03-01T11:03:26.438Z,112.50
2024-03-01T11:04:26.879Z,101.25
2024-03-01T11:05:26.599Z,101.25
2024-03-01T11:06:26.889Z,101.25
2024-03-01T11:07:26.908Z,101.25
2024-03-01T11:08:26.962Z,106.88
2024-03-01T11:09:27.143Z,129.38
2024-03-01T11:10:27.434Z,123.75
2024-03-01T11:11:27.561Z,146.25
2024-03-01T11:12:27.713Z,135.00
2024-03-01T11:13:27.992Z,112.50
2024-03-01T11:14:28.113Z,112.50
2024-03-01T11:15:28.313Z,101.25
2024-03-01T11:16:28.513Z,95.62
2024-03-01T11:17:28.716Z,90.00
2024-03-01T11:18:28.864Z,84.38
2024-03-01T11:19:29.087Z,84.38
2024-03-01T11:20:29.227Z,84.38
2024-03-01T11:21:29.424Z,84.38
2024-03-01T11:22:29.635Z,78.75
2024-03-01T11:23:29.773Z,78.75
2024-03-01T11:24:29.944Z,78.75
2024-03-01T11:25:30.140Z,78.75
2024-03-01T11:26:30.336Z,73.12
2024-03-01T11:27:30.498Z,73.12
2024-03-01T11:28:30.708Z,78.75
2024-03-01T11:29:30.844Z,78.75
2024-03-01T11:30:31.027Z,78.75
2024-03-01T11:31:31.251Z,84.38
2024-03-01T11:32:31.514Z,84.38
2024-03-01T11:33:31.564Z,84.38
2024-03-01T11:34:31.845Z,90.00
2024-03-01T11:35:31.913Z,90.00
2024-03-01T11:36:32.092Z,90.00
2024-03-01T11:37:32.371Z,84.38
2024-03-01T11:38:32.455Z,78.75
2024-03-01T11:39:32.649Z,78.75
2024-03-01T11:40:32.828Z,78.75
2024-03-01T11:41:32.976Z,78.75
2024-03-01T11:42:34.757Z,84.38
2024-03-01T11:43:33.407Z,84.38
2024-03-01T11:44:33.513Z,90.00
2024-03-01T11:45:33.689Z,84.38
2024-03-01T11:46:33.956Z,84.38
2024-03-01T11:47:34.093Z,84.38
2024-03-01T11:48:34.244Z,84.38
2024-03-01T11:49:34.554Z,84.38
2024-03-01T11:50:34.575Z,84.38
2024-03-01T11:51:34.791Z,84.38
2024-03-01T11:52:35.116Z,84.38
2024-03-01T11:53:35.148Z,90.00
2024-03-01T11:54:35.313Z,95.62
2024-03-01T11:55:35.535Z,101.25
2024-03-01T11:56:35.651Z,112.50
2024-03-01T11:57:35.981Z,112.50
2024-03-01T11:58:36.136Z,106.88
2024-03-01T11:59:36.245Z,112.50
2024-03-01T12:00:36.489Z,106.88
2024-03-01T12:01:38.384Z,106.88
2024-03-01T12:02:36.874Z,106.88
2024-03-01T12:03:38.590Z,106.88
2024-03-01T12:04:37.408Z,112.50
2024-03-01T12:05:37.357Z,95.62
2024-03-01T12:06:37.543Z,84.38
2024-03-01T12:07:37.862Z,78.75
2024-03-01T12:08:37.917Z,84.38
2024-03-01T12:09:38.086Z,78.75
2024-03-01T12:10:38.305Z,78.75
2024-03-01T12:11:38.474Z,78.75
2024-03-01T12:12:38.705Z,73.12
2024-03-01T12:13:38.832Z,73.12
2024-03-01T12:14:38.993Z,73.12
2024-03-01T12:15:39.150Z,73.12
2024-03-01T12:16:39.384Z,73.12
2024-03-01T12:17:39.595Z,67.50
2024-03-01T12:18:39.737Z,67.50
2024-03-01T12:19:39.947Z,67.50
2024-03-01T12:20:40.104Z,67.50
2024-03-01T12:21:40.305Z,67.50
2024-03-01T12:22:40.744Z,73.12
2024-03-01T12:23:40.671Z,67.50
2024-03-01T12:24:40.825Z,67.50
2024-03-01T12:25:41.167Z,67.50
2024-03-01T12:26:41.202Z,67.50
2024-03-01T12:27:41.389Z,67.50
2024-03-01T12:28:41.647Z,67.50
2024-03-01T12:29:41.744Z,67.50
2024-03-01T12:30:41.937Z,67.50
2024-03-01T12:31:42.176Z,61.88
2024-03-01T12:32:43.286Z,67.50
2024-03-01T12:33:42.530Z,67.50
2024-03-01T12:34:42.804Z,67.50
2024-03-01T12:35:42.842Z,61.88
2024-03-01T12:36:48.259Z,61.88
2024-03-01T12:37:44.189Z,61.88
2024-03-01T12:38:43.382Z,61.88
2024-03-01T12:39:43.577Z,61.88
2024-03-01T12:40:43.776Z,67.50
2024-03-01T12:41:43.938Z,67.50
2024-03-01T12:42:44.131Z,61.88
2024-03-01T12:43:44.328Z,61.88
2024-03-01T12:44:44.481Z,61.88
2024-03-01T12:45:44.660Z,61.88
2024-03-01T12:46:44.901Z,61.88
2024-03-01T12:47:45.024Z,61.88
2024-03-01T12:48:45.182Z,61.88
2024-03-01T12:49:45.413Z,61.88
2024-03-01T12:50:45.559Z,61.88
2024-03-01T12:51:45.748Z,61.88
2024-03-01T12:52:46.007Z,61.88
2024-03-01T12:53:46.103Z,61.88
2024-03-01T12:54:46.274Z,61.88
2024-03-01T12:55:46.504Z,61.88
2024-03-01T12:56:46.661Z,61.88
2024-03-01T12:57:46.870Z,61.88
2024-03-01T12:58:47.037Z,61.88
2024-03-01T12:59:47.198Z,61.88
2024-03-01T13:00:47.398Z,61.88
2024-03-01T13:01:47.615Z,61.88
2024-03-01T13:02:47.757Z,61.88
2024-03-01T13:03:47.952Z,61.88
2024-03-01T13:04:48.255Z,61.88
2024-03-01T13:05:48.289Z,61.88
2024-03-01T13:06:48.469Z,61.88